createdAt,value
2022-07-29T00:01:40.426Z,22.16
2022-07-29T00:04:06.669Z,22.12
2022-07-29T00:06:32.882Z,22.09
2022-07-29T00:08:59.067Z,22.09
2022-07-29T00:11:25.227Z,22.03
2022-07-29T00:13:51.409Z,22.00
2022-07-29T00:16:17.689Z,21.95
2022-07-29T00:18:43.944Z,21.96
2022-07-29T00:21:10.097Z,22.07
2022-07-29T00:23:36.947Z,22.07
2022-07-29T00:26:03.231Z,22.10
2022-07-29T00:28:29.423Z,22.17
2022-07-29T00:30:55.592Z,22.24
2022-07-29T00:33:21.781Z,22.24
2022-07-29T00:35:48.018Z,22.28
2022-07-29T00:38:14.199Z,22.22
2022-07-29T00:40:40.384Z,22.14
2022-07-29T00:43:10.169Z,22.02
2022-07-29T00:45:36.333Z,21.97
2022-07-29T00:48:02.516Z,21.92
2022-07-29T00:50:28.738Z,21.82
2022-07-29T00:52:54.898Z,21.75
2022-07-29T00:55:21.074Z,21.71
2022-07-29T00:57:47.277Z,21.69
2022-07-29T01:00:13.457Z,21.67
2022-07-29T01:02:39.688Z,21.63
2022-07-29T01:05:05.968Z,21.58
2022-07-29T01:07:32.124Z,21.57
2022-07-29T01:09:58.388Z,21.52
2022-07-29T01:12:24.565Z,21.49
2022-07-29T01:14:50.732Z,21.49
2022-07-29T01:17:17.000Z,21.56
2022-07-29T01:19:43.155Z,21.54
2022-07-29T01:22:09.354Z,21.58
2022-07-29T01:24:35.526Z,21.68
2022-07-29T01:27:01.720Z,21.74
2022-07-29T01:29:35.877Z,21.76
2022-07-29T01:32:05.285Z,21.83
2022-07-29T01:34:31.475Z,21.88
2022-07-29T01:36:57.745Z,21.86
2022-07-29T01:39:23.935Z,21.87
2022-07-29T01:41:50.104Z,21.86
2022-07-29T01:44:16.560Z,21.89
2022-07-29T01:46:42.984Z,21.82
2022-07-29T01:49:09.206Z,21.78
2022-07-29T01:51:35.416Z,21.74
2022-07-29T01:54:01.598Z,21.73
2022-07-29T01:56:27.758Z,21.70
2022-07-29T01:58:53.949Z,21.70
2022-07-29T02:01:20.132Z,21.65
2022-07-29T02:03:46.409Z,21.66
2022-07-29T02:06:12.572Z,21.63
2022-07-29T02:08:38.783Z,21.63
2022-07-29T02:11:04.974Z,21.62
2022-07-29T02:13:31.135Z,21.53
2022-07-29T02:15:57.453Z,21.42
2022-07-29T02:18:23.660Z,21.31
2022-07-29T02:20:49.899Z,21.29
2022-07-29T02:23:16.112Z,21.22
2022-07-29T02:25:42.348Z,21.19
2022-07-29T02:28:09.059Z,21.13
2022-07-29T02:30:35.252Z,20.90
2022-07-29T02:33:01.397Z,20.78
2022-07-29T02:35:27.588Z,20.67
2022-07-29T02:37:53.894Z,20.54
2022-07-29T02:40:20.053Z,20.50
2022-07-29T02:42:46.258Z,20.35
2022-07-29T02:45:12.434Z,20.36
2022-07-29T02:47:41.448Z,20.30
2022-07-29T02:50:08.172Z,20.20
2022-07-29T02:52:34.402Z,20.12
2022-07-29T02:55:00.598Z,20.20
2022-07-29T02:57:26.758Z,20.21
2022-07-29T02:59:52.921Z,20.17
2022-07-29T03:02:19.202Z,20.00
2022-07-29T03:04:45.469Z,19.93
2022-07-29T03:07:11.733Z,19.92
2022-07-29T03:09:40.661Z,19.91
2022-07-29T03:12:06.863Z,19.85
2022-07-29T03:14:33.058Z,19.81
2022-07-29T03:16:59.243Z,19.79
2022-07-29T03:19:25.407Z,19.77
2022-07-29T03:21:51.592Z,19.69
2022-07-29T03:24:18.087Z,19.69
2022-07-29T03:26:44.547Z,19.66
2022-07-29T03:29:10.721Z,19.57
2022-07-29T03:31:39.765Z,19.42
2022-07-29T03:34:09.839Z,19.49
2022-07-29T03:36:36.015Z,19.46
2022-07-29T03:39:02.194Z,19.35
2022-07-29T03:41:28.412Z,19.35
2022-07-29T03:43:54.624Z,19.34
2022-07-29T03:46:20.880Z,19.25
2022-07-29T03:48:47.103Z,19.23
2022-07-29T03:51:13.318Z,19.20
2022-07-29T03:53:39.505Z,19.20
2022-07-29T03:56:05.700Z,19.14
2022-07-29T03:58:31.872Z,19.22
2022-07-29T04:00:58.330Z,19.23
2022-07-29T04:03:24.612Z,19.16
2022-07-29T04:05:50.811Z,19.22
2022-07-29T04:08:17.008Z,19.13
2022-07-29T04:10:43.166Z,19.13
2022-07-29T04:13:09.381Z,19.06
2022-07-29T04:15:35.578Z,19.08
2022-07-29T04:18:01.806Z,19.04
2022-07-29T04:20:27.990Z,19.08
2022-07-29T04:22:54.158Z,19.08
2022-07-29T04:25:20.343Z,19.03
2022-07-29T04:27:46.510Z,19.04
2022-07-29T04:30:12.736Z,18.99
2022-07-29T04:32:38.927Z,19.01
2022-07-29T04:35:05.087Z,18.96
2022-07-29T04:37:31.251Z,18.95
2022-07-29T04:39:57.458Z,18.84
2022-07-29T04:42:27.625Z,18.70
2022-07-29T04:44:55.451Z,18.64
2022-07-29T04:47:21.624Z,18.56
2022-07-29T04:49:47.829Z,18.54
2022-07-29T04:52:14.046Z,18.51
2022-07-29T04:54:40.200Z,18.57
2022-07-29T04:57:06.361Z,18.55
2022-07-29T04:59:32.560Z,18.58
2022-07-29T05:01:58.760Z,18.61
2022-07-29T05:04:25.040Z,18.70
2022-07-29T05:06:51.398Z,18.81
2022-07-29T05:09:17.598Z,18.88
2022-07-29T05:11:43.792Z,18.94
2022-07-29T05:14:09.946Z,18.97
2022-07-29T05:16:36.115Z,19.06
2022-07-29T05:19:02.327Z,19.15
2022-07-29T05:21:28.525Z,19.24
2022-07-29T05:23:54.689Z,19.33
2022-07-29T05:26:20.910Z,19.46
2022-07-29T05:28:47.162Z,19.60
2022-07-29T05:31:13.358Z,19.76
2022-07-29T05:33:39.632Z,19.94
2022-07-29T05:36:05.794Z,20.06
2022-07-29T05:38:31.957Z,20.23
2022-07-29T05:40:58.145Z,20.38
2022-07-29T05:43:24.335Z,20.59
2022-07-29T05:45:50.598Z,20.81
2022-07-29T05:48:16.857Z,21.08
2022-07-29T05:50:44.185Z,21.37
2022-07-29T05:53:19.192Z,21.67
2022-07-29T05:55:46.820Z,22.00
2022-07-29T05:58:13.422Z,22.29
2022-07-29T06:00:39.601Z,22.53
2022-07-29T06:03:05.768Z,22.72
2022-07-29T06:05:31.929Z,22.83
2022-07-29T06:07:58.128Z,22.78
2022-07-29T06:10:26.989Z,22.86
2022-07-29T06:12:53.357Z,22.96
2022-07-29T06:15:19.562Z,23.13
2022-07-29T06:18:00.524Z,23.19
2022-07-29T06:20:27.639Z,23.43
2022-07-29T06:22:53.790Z,23.63
2022-07-29T06:25:19.942Z,23.82
2022-07-29T06:27:46.126Z,23.97
2022-07-29T06:30:12.302Z,24.17
2022-07-29T06:32:42.929Z,24.49
2022-07-29T06:35:39.436Z,24.64
2022-07-29T06:37:55.650Z,24.88
2022-07-29T06:40:25.887Z,24.95
2022-07-29T06:42:52.120Z,24.84
2022-07-29T06:45:18.319Z,24.57
2022-07-29T06:47:47.247Z,24.28
2022-07-29T06:50:13.452Z,23.99
2022-07-29T06:52:39.649Z,23.96
2022-07-29T06:55:05.858Z,23.86
2022-07-29T06:57:44.233Z,23.82
2022-07-29T07:00:10.430Z,23.98
2022-07-29T07:02:37.146Z,24.04
2022-07-29T07:05:03.373Z,23.90
2022-07-29T07:07:29.555Z,23.87
2022-07-29T07:09:55.748Z,24.05
2022-07-29T07:12:21.916Z,24.15
2022-07-29T07:14:48.114Z,24.16
2022-07-29T07:17:14.312Z,24.26
2022-07-29T07:19:40.511Z,24.26
2022-07-29T07:22:09.030Z,24.67
2022-07-29T07:24:35.338Z,24.96
2022-07-29T07:27:01.601Z,24.99
2022-07-29T07:29:27.820Z,24.61
2022-07-29T07:31:58.832Z,24.56
2022-07-29T07:34:29.459Z,24.36
2022-07-29T07:36:56.091Z,24.56
2022-07-29T07:39:22.322Z,25.01
2022-07-29T07:41:48.491Z,25.44
2022-07-29T07:44:16.195Z,25.57
2022-07-29T07:46:42.550Z,25.75
2022-07-29T07:49:09.172Z,25.44
2022-07-29T07:51:37.429Z,25.16
2022-07-29T07:54:03.643Z,24.95
2022-07-29T07:56:35.050Z,24.92
2022-07-29T07:59:01.539Z,25.12
2022-07-29T08:01:27.818Z,25.61
2022-07-29T08:03:54.063Z,26.04
2022-07-29T08:06:20.247Z,26.28
2022-07-29T08:08:51.886Z,26.20
2022-07-29T08:11:21.334Z,26.55
2022-07-29T08:13:58.055Z,26.56
2022-07-29T08:16:26.727Z,26.45
2022-07-29T08:19:15.549Z,26.57
2022-07-29T08:24:25.916Z,27.15
2022-07-29T08:26:52.195Z,27.49
2022-07-29T08:29:20.534Z,27.27
2022-07-29T08:31:50.046Z,26.80
2022-07-29T08:34:16.451Z,26.56
2022-07-29T08:36:42.678Z,26.54
2022-07-29T08:39:08.934Z,26.37
2022-07-29T08:41:35.159Z,26.36
2022-07-29T08:44:01.385Z,26.79
2022-07-29T08:46:27.610Z,27.23
2022-07-29T08:48:53.824Z,26.99
2022-07-29T08:51:20.195Z,26.81
2022-07-29T08:53:46.513Z,26.90
2022-07-29T08:56:17.592Z,27.06
2022-07-29T08:58:54.257Z,27.15
2022-07-29T09:01:20.585Z,27.27
2022-07-29T09:03:54.277Z,27.43
2022-07-29T09:09:05.375Z,27.11
2022-07-29T09:11:31.638Z,26.94
2022-07-29T09:13:57.885Z,27.07
2022-07-29T09:16:50.830Z,27.34
2022-07-29T09:19:18.002Z,27.13
2022-07-29T09:21:53.060Z,27.03
2022-07-29T09:24:20.732Z,27.12
2022-07-29T09:26:49.834Z,27.43
2022-07-29T09:29:16.056Z,27.25
2022-07-29T09:31:42.364Z,27.46
2022-07-29T09:34:08.645Z,27.59
2022-07-29T09:36:37.647Z,27.86
2022-07-29T09:39:03.884Z,27.78
2022-07-29T09:44:13.036Z,27.71
2022-07-29T09:46:40.326Z,27.86
2022-07-29T09:49:06.671Z,27.96
2022-07-29T09:51:38.473Z,28.04
2022-07-29T09:54:04.908Z,28.12
2022-07-29T09:56:39.127Z,28.15
2022-07-29T09:59:08.505Z,28.26
2022-07-29T10:01:34.746Z,28.38
2022-07-29T10:04:01.202Z,28.56
2022-07-29T10:06:41.540Z,28.58
2022-07-29T10:09:07.837Z,28.59
2022-07-29T10:11:48.364Z,28.41
2022-07-29T10:14:15.640Z,28.49
2022-07-29T10:16:44.205Z,28.45
2022-07-29T10:19:10.507Z,28.77
2022-07-29T10:21:36.866Z,28.94
2022-07-29T10:24:05.900Z,29.03
2022-07-29T10:26:39.598Z,29.08
2022-07-29T10:29:05.912Z,29.28
2022-07-29T10:31:33.773Z,29.14
2022-07-29T10:34:01.465Z,29.11
2022-07-29T10:36:27.709Z,29.23
2022-07-29T10:39:04.466Z,29.28
2022-07-29T10:41:43.932Z,29.53
2022-07-29T10:44:16.104Z,29.73
2022-07-29T10:46:46.618Z,29.71
2022-07-29T10:49:15.208Z,29.77
2022-07-29T10:54:22.006Z,29.59
2022-07-29T10:56:48.275Z,29.61
2022-07-29T10:59:16.916Z,30.01
2022-07-29T11:01:46.411Z,30.06
2022-07-29T11:04:18.630Z,30.22
2022-07-29T11:06:49.110Z,30.37
2022-07-29T11:09:15.324Z,30.42
2022-07-29T11:11:43.953Z,30.52
2022-07-29T11:14:14.088Z,30.51
2022-07-29T11:16:40.330Z,30.07
2022-07-29T11:19:07.575Z,30.35
2022-07-29T11:21:51.666Z,30.30
2022-07-29T11:24:28.942Z,30.41
2022-07-29T11:27:00.522Z,30.65
2022-07-29T11:29:26.993Z,30.63
2022-07-29T11:31:53.801Z,29.38
2022-07-29T11:34:21.288Z,29.48
2022-07-29T11:36:48.817Z,29.87
2022-07-29T11:39:15.203Z,30.22
2022-07-29T11:41:41.418Z,30.19
2022-07-29T11:44:09.164Z,30.02
2022-07-29T11:46:35.348Z,30.25
2022-07-29T11:49:02.303Z,30.00
2022-07-29T11:51:35.516Z,29.99
2022-07-29T11:54:05.456Z,29.99
2022-07-29T11:56:39.151Z,30.18
2022-07-29T11:59:08.477Z,30.14
2022-07-29T12:01:34.816Z,30.00
2022-07-29T12:04:01.082Z,30.23
2022-07-29T12:06:27.350Z,30.29
2022-07-29T12:08:53.579Z,30.29
2022-07-29T12:11:21.323Z,30.09
2022-07-29T12:13:49.237Z,30.01
2022-07-29T12:16:15.973Z,30.04
2022-07-29T12:18:44.973Z,29.98
2022-07-29T12:21:12.553Z,30.26
2022-07-29T12:23:39.000Z,30.47
2022-07-29T12:26:05.216Z,30.31
2022-07-29T12:28:33.972Z,30.53
2022-07-29T12:31:01.263Z,31.03
2022-07-29T12:33:28.248Z,30.94
2022-07-29T12:36:14.167Z,31.04
2022-07-29T12:38:43.849Z,30.81
2022-07-29T12:41:10.017Z,30.71
2022-07-29T12:43:36.215Z,30.60
2022-07-29T12:46:02.451Z,30.78
2022-07-29T12:48:28.636Z,30.87
2022-07-29T12:50:54.892Z,30.87
2022-07-29T12:53:21.105Z,30.56
2022-07-29T12:55:47.522Z,30.57
2022-07-29T12:58:13.805Z,30.28
2022-07-29T13:00:41.057Z,30.44
2022-07-29T13:03:08.086Z,30.43
2022-07-29T13:05:34.281Z,29.86
2022-07-29T13:08:00.493Z,29.77
2022-07-29T13:10:26.799Z,29.66
2022-07-29T13:12:53.062Z,29.49
2022-07-29T13:15:19.236Z,29.39
2022-07-29T13:17:45.435Z,29.18
2022-07-29T13:20:14.248Z,29.19
2022-07-29T13:22:40.451Z,29.20
2022-07-29T13:25:06.621Z,28.90
2022-07-29T13:27:32.827Z,28.88
2022-07-29T13:29:59.018Z,28.88
2022-07-29T13:32:27.844Z,28.95
2022-07-29T13:34:54.748Z,28.86
2022-07-29T13:37:20.906Z,28.77
2022-07-29T13:39:51.315Z,28.97
2022-07-29T13:42:19.486Z,28.86
2022-07-29T13:44:45.668Z,28.89
2022-07-29T13:47:11.855Z,28.81
2022-07-29T13:49:40.104Z,28.78
2022-07-29T13:52:06.323Z,28.84
2022-07-29T13:54:38.817Z,28.92
2022-07-29T13:57:08.022Z,29.12
2022-07-29T13:59:34.497Z,29.25
2022-07-29T14:02:04.874Z,29.40
2022-07-29T14:10:05.707Z,29.29
2022-07-29T14:18:15.577Z,29.06
2022-07-29T14:23:30.621Z,29.29
2022-07-29T14:28:47.331Z,29.37
2022-07-29T14:31:19.828Z,29.36
2022-07-29T14:33:49.151Z,29.42
2022-07-29T14:37:15.784Z,29.28
2022-07-29T14:42:02.436Z,29.19
2022-07-29T14:44:28.670Z,29.16
2022-07-29T14:46:54.924Z,29.22
2022-07-29T14:49:23.396Z,29.36
2022-07-29T14:51:49.608Z,29.27
2022-07-29T14:54:16.949Z,29.55
2022-07-29T14:56:46.651Z,29.66
2022-07-29T14:59:23.470Z,29.72
2022-07-29T15:01:57.200Z,29.74
2022-07-29T15:04:23.626Z,29.85
2022-07-29T15:12:14.555Z,29.92
2022-07-29T15:14:42.217Z,29.85
2022-07-29T15:17:13.561Z,29.87
2022-07-29T15:19:45.031Z,29.91
2022-07-29T15:22:11.342Z,29.73
2022-07-29T15:24:37.578Z,29.61
2022-07-29T15:27:03.821Z,29.58
2022-07-29T15:29:30.026Z,29.51
2022-07-29T15:31:56.703Z,29.63
2022-07-29T15:34:27.381Z,29.81
2022-07-29T15:36:54.126Z,30.15
2022-07-29T15:39:20.511Z,30.52
2022-07-29T15:41:46.723Z,30.95
2022-07-29T15:44:19.675Z,31.18
2022-07-29T15:46:48.659Z,31.03
2022-07-29T15:49:16.073Z,31.02
2022-07-29T15:51:44.557Z,30.91
2022-07-29T15:54:10.852Z,30.71
2022-07-29T15:56:38.503Z,30.41
2022-07-29T15:59:04.768Z,30.22
2022-07-29T16:01:31.176Z,30.24
2022-07-29T16:03:58.903Z,30.19
2022-07-29T16:06:25.167Z,30.06
2022-07-29T16:08:51.393Z,29.87
2022-07-29T16:11:17.649Z,29.72
2022-07-29T16:13:44.062Z,29.65
2022-07-29T16:16:12.637Z,29.61
2022-07-29T16:21:19.118Z,29.41
2022-07-29T16:23:54.140Z,29.48
2022-07-29T16:26:26.655Z,29.91
2022-07-29T16:28:54.402Z,30.09
2022-07-29T16:31:21.049Z,30.10
2022-07-29T16:34:09.875Z,30.09
2022-07-29T16:36:36.525Z,30.00
2022-07-29T16:39:02.751Z,30.27
2022-07-29T16:41:36.193Z,30.49
2022-07-29T16:44:02.470Z,30.60
2022-07-29T16:49:11.862Z,30.85
2022-07-29T16:51:45.018Z,30.70
2022-07-29T16:54:11.229Z,30.55
2022-07-29T16:56:37.543Z,30.25
2022-07-29T16:59:03.783Z,30.02
2022-07-29T17:01:32.917Z,29.82
2022-07-29T17:04:00.480Z,29.66
2022-07-29T17:06:27.015Z,29.70
2022-07-29T17:08:53.546Z,29.58
2022-07-29T17:11:19.871Z,29.64
2022-07-29T17:13:46.045Z,29.61
2022-07-29T17:16:12.576Z,29.71
2022-07-29T17:18:38.833Z,29.59
2022-07-29T17:21:05.061Z,29.65
2022-07-29T17:23:31.222Z,29.63
2022-07-29T17:25:57.384Z,29.58
2022-07-29T17:28:23.949Z,29.43
2022-07-29T17:30:50.435Z,29.33
2022-07-29T17:33:16.619Z,29.34
2022-07-29T17:35:42.839Z,29.33
2022-07-29T17:38:08.994Z,29.28
2022-07-29T17:40:38.185Z,29.29
2022-07-29T17:43:04.352Z,29.34
2022-07-29T17:45:48.753Z,29.34
2022-07-29T17:48:16.722Z,29.28
2022-07-29T17:50:45.728Z,29.30
2022-07-29T17:53:16.224Z,29.21
2022-07-29T17:55:45.136Z,29.06
2022-07-29T17:58:18.743Z,28.99
2022-07-29T18:00:45.034Z,28.88
2022-07-29T18:03:11.423Z,28.79
2022-07-29T18:05:39.537Z,28.71
2022-07-29T18:08:11.366Z,28.66
2022-07-29T18:10:46.571Z,28.62
2022-07-29T18:13:19.953Z,28.50
2022-07-29T18:15:46.313Z,28.45
2022-07-29T18:18:12.620Z,28.36
2022-07-29T18:20:38.883Z,28.26
2022-07-29T18:23:07.235Z,28.20
2022-07-29T18:25:33.495Z,28.11
2022-07-29T18:39:33.250Z,27.48
2022-07-29T18:41:59.547Z,27.34
2022-07-29T18:44:28.535Z,27.29
2022-07-29T18:46:55.033Z,27.19
2022-07-29T18:49:21.467Z,27.10
2022-07-29T18:51:47.765Z,27.08
2022-07-29T18:54:15.253Z,26.97
2022-07-29T18:56:45.028Z,26.83
2022-07-29T18:59:16.057Z,26.76
2022-07-29T19:01:42.448Z,26.68
2022-07-29T19:04:10.695Z,26.56
2022-07-29T19:06:37.007Z,26.44
2022-07-29T19:11:56.303Z,26.21
2022-07-29T19:14:24.486Z,26.07
2022-07-29T19:16:54.507Z,25.94
2022-07-29T19:19:20.713Z,25.76
2022-07-29T19:21:47.138Z,25.75
2022-07-29T19:24:15.588Z,25.54
2022-07-29T19:26:44.186Z,25.49
2022-07-29T19:29:10.381Z,25.35
2022-07-29T19:31:36.688Z,25.29
2022-07-29T19:34:02.894Z,25.22
2022-07-29T19:36:29.079Z,25.18
2022-07-29T19:38:55.403Z,25.06
2022-07-29T19:41:21.604Z,25.01
2022-07-29T19:43:53.133Z,24.93
2022-07-29T19:46:19.627Z,24.90
2022-07-29T19:48:49.580Z,24.87
2022-07-29T19:51:28.845Z,24.83
2022-07-29T20:02:20.267Z,24.64
2022-07-29T20:04:49.456Z,24.55
2022-07-29T20:07:18.414Z,24.55
2022-07-29T20:09:46.623Z,24.52
2022-07-29T20:12:23.502Z,24.49
2022-07-29T20:14:49.765Z,24.45
2022-07-29T20:17:29.206Z,24.47
2022-07-29T20:19:58.934Z,24.41
2022-07-29T20:22:25.316Z,24.38
2022-07-29T20:24:51.600Z,24.31
2022-07-29T20:27:17.930Z,24.27
2022-07-29T20:29:44.484Z,24.28
2022-07-29T20:32:10.732Z,24.27
2022-07-29T20:34:44.132Z,24.23
2022-07-29T20:37:17.987Z,24.27
2022-07-29T20:39:45.570Z,24.17
2022-07-29T20:42:12.746Z,24.11
2022-07-29T20:44:38.975Z,24.06
2022-07-29T20:47:05.223Z,23.98
2022-07-29T20:49:31.422Z,23.89
2022-07-29T20:51:57.719Z,23.84
2022-07-29T20:54:23.957Z,23.75
2022-07-29T20:56:51.603Z,23.69
2022-07-29T20:59:17.979Z,23.65
2022-07-29T21:01:44.229Z,23.56
2022-07-29T21:04:10.506Z,23.52
2022-07-29T21:06:36.716Z,23.49
2022-07-29T21:09:02.964Z,23.46
2022-07-29T21:11:44.463Z,23.44
2022-07-29T21:14:11.268Z,23.44
2022-07-29T21:16:37.476Z,23.48
2022-07-29T21:19:03.776Z,23.49
2022-07-29T21:21:29.981Z,23.37
2022-07-29T21:23:56.246Z,23.31
2022-07-29T21:26:24.547Z,23.32
2022-07-29T21:28:50.794Z,23.25
2022-07-29T21:31:17.044Z,23.30
2022-07-29T21:33:43.249Z,23.24
2022-07-29T21:36:44.008Z,23.22
2022-07-29T21:38:55.681Z,23.17
2022-07-29T21:41:24.136Z,23.16
2022-07-29T21:43:50.331Z,23.08
2022-07-29T21:46:16.652Z,23.02
2022-07-29T21:48:44.690Z,22.95
2022-07-29T21:51:11.060Z,22.77
2022-07-29T21:53:37.290Z,22.75
2022-07-29T21:56:06.138Z,22.67
2022-07-29T21:58:35.665Z,22.62
2022-07-29T22:01:05.962Z,22.59
2022-07-29T22:03:32.235Z,22.59
2022-07-29T22:05:58.507Z,22.53
2022-07-29T22:08:25.890Z,22.52
2022-07-29T22:10:52.058Z,22.49
2022-07-29T22:13:18.298Z,22.45
2022-07-29T22:15:47.204Z,22.44
2022-07-29T22:18:13.586Z,22.39
2022-07-29T22:20:46.715Z,22.34
2022-07-29T22:23:14.278Z,22.31
2022-07-29T22:25:47.718Z,22.29
2022-07-29T22:28:13.978Z,22.30
2022-07-29T22:30:43.346Z,22.22
2022-07-29T22:33:09.568Z,22.23
2022-07-29T22:35:43.781Z,22.18
2022-07-29T22:38:09.951Z,22.17
2022-07-29T22:40:36.115Z,22.09
2022-07-29T22:43:02.437Z,22.01
2022-07-29T22:45:28.644Z,21.96
2022-07-29T22:47:59.205Z,21.96
2022-07-29T22:50:25.748Z,21.93
2022-07-29T22:52:51.934Z,21.87
2022-07-29T22:55:18.131Z,21.83
2022-07-29T22:57:44.312Z,21.78
2022-07-29T23:00:10.509Z,21.71
2022-07-29T23:02:36.730Z,21.73
2022-07-29T23:05:02.957Z,21.68
2022-07-29T23:07:29.140Z,21.67
2022-07-29T23:09:55.326Z,21.61
2022-07-29T23:12:21.481Z,21.55
2022-07-29T23:14:47.666Z,21.55
2022-07-29T23:17:13.925Z,21.50
2022-07-29T23:19:40.163Z,21.47
2022-07-29T23:22:06.338Z,21.43
2022-07-29T23:24:32.507Z,21.35
2022-07-29T23:26:58.977Z,21.27
2022-07-29T23:29:25.760Z,21.18
2022-07-29T23:31:51.941Z,21.14
2022-07-29T23:34:18.112Z,21.10
2022-07-29T23:36:44.297Z,21.07
2022-07-29T23:39:10.507Z,21.04
2022-07-29T23:41:36.687Z,20.99
2022-07-29T23:44:02.899Z,21.01
2022-07-29T23:46:29.064Z,20.97
2022-07-29T23:48:55.301Z,20.95
2022-07-29T23:51:21.501Z,20.90
2022-07-29T23:53:53.773Z,20.89
2022-07-29T23:56:20.529Z,20.87
2022-07-29T23:58:46.824Z,20.84
